createdAt,value
2023-03-22T00:01:37.767Z,2.00
2023-03-22T00:04:04.644Z,2.00
2023-03-22T00:06:31.586Z,2.13
2023-03-22T00:08:58.408Z,1.65
2023-03-22T00:11:25.936Z,2.15
2023-03-22T00:13:53.723Z,2.08
2023-03-22T00:16:21.209Z,2.00
2023-03-22T00:18:48.070Z,1.88
2023-03-22T00:21:15.781Z,2.28
2023-03-22T00:23:42.989Z,2.13
2023-03-22T00:26:10.774Z,2.00
2023-03-22T00:28:38.837Z,2.20
2023-03-22T00:31:06.368Z,2.05
2023-03-22T00:33:33.557Z,1.83
2023-03-22T00:36:01.407Z,2.35
2023-03-22T00:38:42.618Z,2.22
2023-03-22T00:41:11.049Z,2.30
2023-03-22T00:43:38.321Z,2.17
2023-03-22T00:46:05.605Z,2.08
2023-03-22T00:48:32.823Z,2.05
2023-03-22T00:50:59.890Z,2.22
2023-03-22T00:53:29.124Z,2.15
2023-03-22T00:55:56.882Z,2.20
2023-03-22T00:58:24.016Z,2.53
2023-03-22T01:00:51.169Z,2.28
2023-03-22T01:03:18.159Z,2.00
2023-03-22T01:05:46.276Z,2.15
2023-03-22T01:08:15.240Z,2.60
2023-03-22T01:10:42.919Z,2.00
2023-03-22T01:13:10.270Z,2.20
2023-03-22T01:15:37.154Z,2.17
2023-03-22T01:18:04.476Z,2.65
2023-03-22T01:20:31.941Z,2.55
2023-03-22T01:22:59.604Z,2.50
2023-03-22T01:25:26.461Z,2.65
2023-03-22T01:27:54.246Z,2.60
2023-03-22T01:30:21.042Z,1.90
2023-03-22T01:32:48.415Z,2.40
2023-03-22T01:35:17.476Z,2.75
2023-03-22T01:37:44.303Z,1.98
2023-03-22T01:40:12.985Z,3.00
2023-03-22T01:42:40.553Z,2.60
2023-03-22T01:45:16.712Z,2.85
2023-03-22T01:47:47.747Z,3.00
2023-03-22T01:50:15.278Z,3.20
2023-03-22T01:52:42.275Z,3.17
2023-03-22T01:55:18.286Z,3.35
2023-03-22T01:57:47.180Z,3.70
2023-03-22T02:00:20.636Z,4.13
2023-03-22T02:03:16.035Z,4.75
2023-03-22T02:05:47.116Z,5.43
2023-03-22T02:08:14.982Z,5.80
2023-03-22T02:11:01.531Z,6.10
2023-03-22T02:13:34.255Z,6.65
2023-03-22T02:16:32.000Z,7.32
2023-03-22T02:19:03.757Z,8.18
2023-03-22T02:21:39.714Z,7.68
2023-03-22T02:24:25.379Z,8.40
2023-03-22T02:27:02.994Z,7.63
2023-03-22T02:29:36.420Z,8.82
2023-03-22T02:32:29.740Z,9.32
2023-03-22T02:35:17.067Z,9.23
2023-03-22T02:38:01.424Z,9.35
2023-03-22T02:40:32.433Z,9.55
2023-03-22T02:43:18.257Z,8.95
2023-03-22T02:45:48.257Z,9.98
2023-03-22T02:48:23.121Z,9.65
2023-03-22T02:51:08.354Z,10.63
2023-03-22T02:53:57.631Z,9.85
2023-03-22T02:56:26.476Z,10.48
2023-03-22T02:58:54.943Z,10.93
2023-03-22T03:01:29.333Z,10.30
2023-03-22T03:03:57.909Z,9.55
2023-03-22T03:06:28.889Z,9.82
2023-03-22T03:08:58.090Z,10.23
2023-03-22T03:11:26.183Z,10.60
2023-03-22T03:13:53.051Z,10.02
2023-03-22T03:16:21.674Z,11.23
2023-03-22T03:18:59.346Z,9.98
2023-03-22T03:21:42.611Z,10.13
2023-03-22T03:24:09.546Z,11.02
2023-03-22T03:26:36.254Z,10.60
2023-03-22T03:29:21.670Z,10.70
2023-03-22T03:32:04.295Z,10.40
2023-03-22T03:34:36.266Z,9.82
2023-03-22T03:37:17.383Z,9.68
2023-03-22T03:39:47.629Z,10.40
2023-03-22T03:42:16.204Z,10.20
2023-03-22T03:44:43.322Z,9.52
2023-03-22T03:47:12.336Z,10.32
2023-03-22T03:49:39.479Z,10.25
2023-03-22T03:52:06.904Z,9.75
2023-03-22T03:54:33.971Z,9.75
2023-03-22T03:57:04.003Z,10.13
2023-03-22T03:59:31.093Z,9.80
2023-03-22T04:02:00.433Z,9.45
2023-03-22T04:04:30.651Z,9.57
2023-03-22T04:07:03.585Z,8.30
2023-03-22T04:09:35.262Z,9.40
2023-03-22T04:12:11.143Z,9.90
2023-03-22T04:14:38.008Z,9.32
2023-03-22T04:17:13.473Z,8.93
2023-03-22T04:19:42.246Z,9.13
2023-03-22T04:22:14.787Z,8.63
2023-03-22T04:24:41.844Z,8.30
2023-03-22T04:27:09.118Z,9.20
2023-03-22T04:29:50.940Z,7.75
2023-03-22T04:32:40.757Z,7.90
2023-03-22T04:35:07.781Z,8.70
2023-03-22T04:37:34.650Z,8.48
2023-03-22T04:40:17.566Z,8.02
2023-03-22T04:43:04.117Z,8.60
2023-03-22T04:46:03.417Z,7.43
2023-03-22T04:48:40.806Z,7.90
2023-03-22T04:51:10.968Z,7.18
2023-03-22T04:53:44.975Z,8.38
2023-03-22T04:56:13.167Z,8.23
2023-03-22T04:58:42.089Z,7.80
2023-03-22T05:01:09.838Z,7.22
2023-03-22T05:03:39.668Z,7.28
2023-03-22T05:06:08.349Z,7.70
2023-03-22T05:08:43.616Z,7.78
2023-03-22T05:11:16.622Z,7.85
2023-03-22T05:13:51.280Z,6.88
2023-03-22T05:16:18.153Z,7.22
2023-03-22T05:18:54.494Z,7.13
2023-03-22T05:21:28.325Z,7.30
2023-03-22T05:23:58.112Z,6.43
2023-03-22T05:26:26.380Z,6.72
2023-03-22T05:28:55.359Z,6.65
2023-03-22T05:31:30.571Z,6.97
2023-03-22T05:34:01.632Z,6.68
2023-03-22T05:36:30.186Z,5.97
2023-03-22T05:39:23.149Z,6.60
2023-03-22T05:41:50.632Z,5.60
2023-03-22T05:44:17.473Z,5.25
2023-03-22T05:47:13.323Z,5.10
2023-03-22T05:49:55.889Z,4.35
2023-03-22T05:52:24.511Z,5.28
2023-03-22T05:55:13.824Z,4.65
2023-03-22T05:57:41.045Z,4.78
2023-03-22T06:00:13.353Z,4.63
2023-03-22T06:02:43.728Z,4.50
2023-03-22T06:05:11.222Z,4.47
2023-03-22T06:07:38.579Z,4.28
2023-03-22T06:10:16.802Z,5.07
2023-03-22T06:12:43.755Z,3.88
2023-03-22T06:15:16.707Z,3.78
2023-03-22T06:18:04.988Z,3.90
2023-03-22T06:20:36.230Z,3.53
2023-03-22T06:23:09.463Z,4.68
2023-03-22T06:25:37.465Z,4.30
2023-03-22T06:28:06.940Z,3.60
2023-03-22T06:30:35.631Z,3.75
2023-03-22T06:33:21.161Z,3.38
2023-03-22T06:35:53.791Z,3.28
2023-03-22T06:38:31.551Z,3.80
2023-03-22T06:40:58.824Z,2.90
2023-03-22T06:43:26.113Z,3.13
2023-03-22T06:46:00.099Z,2.85
2023-03-22T06:48:32.820Z,2.78
2023-03-22T06:51:04.798Z,2.83
2023-03-22T06:53:34.548Z,2.53
2023-03-22T06:56:02.941Z,2.30
2023-03-22T06:58:33.618Z,2.35
2023-03-22T07:01:00.644Z,2.60
2023-03-22T07:03:28.921Z,2.17
2023-03-22T07:06:07.812Z,2.58
2023-03-22T07:08:37.813Z,2.08
2023-03-22T07:11:06.303Z,1.98
2023-03-22T07:13:33.718Z,1.75
2023-03-22T07:16:04.778Z,1.83
2023-03-22T07:18:38.703Z,2.00
2023-03-22T07:21:05.888Z,1.70
2023-03-22T07:23:34.655Z,2.67
2023-03-22T07:26:07.286Z,2.35
2023-03-22T07:28:36.913Z,2.08
2023-03-22T07:31:06.998Z,1.83
2023-03-22T07:33:52.307Z,2.63
2023-03-22T07:36:23.854Z,2.15
2023-03-22T07:38:51.767Z,2.30
2023-03-22T07:41:25.908Z,1.88
2023-03-22T07:44:18.059Z,2.20
2023-03-22T07:47:00.743Z,2.10
2023-03-22T07:49:36.511Z,2.03
2023-03-22T07:52:19.224Z,2.25
2023-03-22T07:54:47.306Z,2.47
2023-03-22T07:57:14.918Z,2.60
2023-03-22T07:59:47.274Z,2.20
2023-03-22T08:02:14.764Z,2.47
2023-03-22T08:04:53.148Z,2.33
2023-03-22T08:07:30.104Z,2.50
2023-03-22T08:09:59.346Z,2.80
2023-03-22T08:12:28.063Z,3.47
2023-03-22T08:15:03.704Z,2.80
2023-03-22T08:17:33.771Z,2.40
2023-03-22T08:20:00.796Z,3.08
2023-03-22T08:22:43.394Z,2.83
2023-03-22T08:25:32.479Z,2.70
2023-03-22T08:28:09.423Z,2.42
2023-03-22T08:30:38.008Z,3.50
2023-03-22T08:33:05.345Z,2.75
2023-03-22T08:35:33.019Z,3.13
2023-03-22T08:38:00.143Z,2.80
2023-03-22T08:40:35.669Z,3.03
2023-03-22T08:43:03.092Z,1.90
2023-03-22T08:45:30.662Z,1.70
2023-03-22T08:48:12.279Z,2.25
2023-03-22T08:51:02.981Z,2.63
2023-03-22T08:53:39.749Z,2.60
2023-03-22T08:56:27.151Z,2.03
2023-03-22T08:59:09.415Z,1.80
2023-03-22T09:01:50.274Z,1.92
2023-03-22T09:04:17.698Z,2.88
2023-03-22T09:06:45.562Z,2.45
2023-03-22T09:09:13.032Z,2.47
2023-03-22T09:11:42.757Z,2.67
2023-03-22T09:14:09.762Z,2.72
2023-03-22T09:16:36.607Z,2.15
2023-03-22T09:19:03.827Z,2.90
2023-03-22T09:21:31.122Z,3.05
2023-03-22T09:24:20.782Z,2.85
2023-03-22T09:26:52.934Z,2.67
2023-03-22T09:29:20.624Z,2.85
2023-03-22T09:31:49.040Z,2.70
2023-03-22T09:34:27.146Z,2.60
2023-03-22T09:36:56.728Z,3.08
2023-03-22T09:39:29.208Z,2.15
2023-03-22T09:42:00.768Z,3.28
2023-03-22T09:44:32.353Z,2.85
2023-03-22T09:47:00.499Z,3.28
2023-03-22T09:49:30.464Z,2.70
2023-03-22T09:51:58.562Z,2.88
2023-03-22T09:54:31.411Z,2.50
2023-03-22T09:57:05.093Z,2.42
2023-03-22T09:59:41.462Z,2.78
2023-03-22T10:02:31.528Z,2.53
2023-03-22T10:05:17.228Z,2.45
2023-03-22T10:08:00.128Z,2.90
2023-03-22T10:10:27.063Z,2.67
2023-03-22T10:12:58.141Z,2.45
2023-03-22T10:15:30.166Z,3.45
2023-03-22T10:17:58.259Z,2.70
2023-03-22T10:20:31.899Z,2.65
2023-03-22T10:23:01.150Z,2.72
2023-03-22T10:25:33.062Z,2.30
2023-03-22T10:28:00.244Z,2.78
2023-03-22T10:30:30.208Z,2.17
2023-03-22T10:33:01.818Z,2.72
2023-03-22T10:35:29.880Z,3.00
2023-03-22T10:37:58.087Z,2.97
2023-03-22T10:40:27.220Z,3.03
2023-03-22T10:42:56.173Z,2.78
2023-03-22T10:45:24.918Z,2.80
2023-03-22T10:48:03.718Z,2.92
2023-03-22T10:50:32.784Z,2.38
2023-03-22T10:53:07.427Z,2.40
2023-03-22T10:55:39.516Z,2.53
2023-03-22T10:58:15.765Z,2.58
2023-03-22T11:00:53.255Z,2.53
2023-03-22T11:03:26.615Z,3.22
2023-03-22T11:06:03.271Z,2.50
2023-03-22T11:08:39.539Z,1.77
2023-03-22T11:11:15.636Z,2.33
2023-03-22T11:13:42.574Z,2.58
2023-03-22T11:16:09.579Z,2.30
2023-03-22T11:18:36.364Z,2.60
2023-03-22T11:21:08.111Z,2.35
2023-03-22T11:23:35.388Z,2.95
2023-03-22T11:26:07.830Z,2.30
2023-03-22T11:28:37.152Z,2.40
2023-03-22T11:31:12.243Z,2.33
2023-03-22T11:33:45.586Z,2.15
2023-03-22T11:36:17.276Z,2.65
2023-03-22T11:38:45.662Z,2.38
2023-03-22T11:41:21.637Z,2.10
2023-03-22T11:43:52.768Z,2.17
2023-03-22T11:46:21.163Z,2.42
2023-03-22T11:48:49.276Z,2.30
2023-03-22T11:51:18.018Z,2.03
2023-03-22T11:53:46.810Z,2.40
2023-03-22T11:56:18.951Z,2.50
2023-03-22T11:59:08.956Z,2.25
2023-03-22T12:01:54.753Z,2.30
2023-03-22T12:04:24.798Z,2.40
2023-03-22T12:06:53.880Z,2.85
2023-03-22T12:09:39.564Z,2.10
2023-03-22T12:12:10.507Z,3.17
2023-03-22T12:14:46.535Z,2.72
2023-03-22T12:17:16.885Z,2.92
2023-03-22T12:20:02.436Z,3.05
2023-03-22T12:22:33.748Z,2.63
2023-03-22T12:25:02.854Z,2.50
2023-03-22T12:27:43.062Z,2.75
2023-03-22T12:30:16.099Z,2.70
2023-03-22T12:33:06.739Z,3.03
2023-03-22T12:35:35.374Z,3.70
2023-03-22T12:38:09.921Z,3.28
2023-03-22T12:40:41.315Z,3.35
2023-03-22T12:43:08.231Z,3.38
2023-03-22T12:45:40.912Z,3.35
2023-03-22T12:48:20.705Z,3.65
2023-03-22T12:50:58.327Z,3.30
2023-03-22T12:53:27.241Z,3.20
2023-03-22T12:55:55.591Z,3.42
2023-03-22T12:58:24.460Z,3.58
2023-03-22T13:00:58.122Z,3.80
2023-03-22T13:03:25.618Z,3.67
2023-03-22T13:06:00.320Z,4.32
2023-03-22T13:08:48.128Z,3.63
2023-03-22T13:11:23.212Z,4.22
2023-03-22T13:13:50.232Z,3.63
2023-03-22T13:16:20.174Z,3.40
2023-03-22T13:18:50.171Z,3.33
2023-03-22T13:21:19.431Z,3.30
2023-03-22T13:23:52.437Z,3.80
2023-03-22T13:26:19.603Z,4.00
2023-03-22T13:29:00.034Z,3.40
2023-03-22T13:31:37.936Z,3.33
2023-03-22T13:34:12.444Z,4.07
2023-03-22T13:36:39.409Z,3.80
2023-03-22T13:39:10.034Z,4.38
2023-03-22T13:41:36.953Z,4.00
2023-03-22T13:44:19.672Z,4.72
2023-03-22T13:46:51.673Z,4.95
2023-03-22T13:49:37.327Z,4.35
2023-03-22T13:52:06.935Z,5.00
2023-03-22T13:54:41.383Z,5.63
2023-03-22T13:57:17.676Z,5.45
2023-03-22T14:00:11.289Z,5.93
2023-03-22T14:02:42.240Z,6.45
2023-03-22T14:05:16.416Z,5.88
2023-03-22T14:07:54.040Z,5.70
2023-03-22T14:10:24.461Z,5.90
2023-03-22T14:12:51.207Z,5.53
2023-03-22T14:15:20.364Z,6.05
2023-03-22T14:17:51.352Z,6.45
2023-03-22T14:20:20.762Z,7.03
